createdAt,value
2018-12-05T00:01:23.978Z,2.62
2018-12-05T00:02:23.931Z,2.48
2018-12-05T00:04:19.660Z,2.48
2018-12-05T00:05:19.599Z,2.40
2018-12-05T00:07:15.965Z,2.47
2018-12-05T00:08:15.917Z,2.48
2018-12-05T00:10:12.855Z,2.50
2018-12-05T00:11:12.799Z,2.37
2018-12-05T00:13:09.199Z,2.38
2018-12-05T00:14:09.139Z,2.30
2018-12-05T00:16:04.845Z,2.40
2018-12-05T00:17:04.788Z,2.32
2018-12-05T00:19:01.125Z,2.22
2018-12-05T00:20:01.066Z,2.29
2018-12-05T00:21:57.387Z,2.41
2018-12-05T00:22:57.330Z,2.37
2018-12-05T00:24:53.905Z,2.37
2018-12-05T00:25:53.843Z,2.43
2018-12-05T00:27:49.549Z,2.37
2018-12-05T00:28:49.475Z,2.40
2018-12-05T00:30:46.570Z,2.30
2018-12-05T00:31:46.525Z,2.23
2018-12-05T00:33:43.152Z,2.20
2018-12-05T00:34:43.093Z,2.20
2018-12-05T00:36:40.329Z,2.18
2018-12-05T00:37:40.282Z,2.22
2018-12-05T00:39:37.027Z,2.20
2018-12-05T00:40:36.981Z,2.14
2018-12-05T00:42:32.807Z,2.09
2018-12-05T00:43:32.759Z,2.05
2018-12-05T00:45:29.068Z,2.14
2018-12-05T00:46:29.015Z,2.09
2018-12-05T00:48:25.963Z,2.08
2018-12-05T00:49:25.908Z,2.12
2018-12-05T00:51:22.287Z,2.22
2018-12-05T00:52:22.226Z,2.18
2018-12-05T00:54:18.592Z,2.22
2018-12-05T00:55:18.542Z,2.19
2018-12-05T00:57:14.844Z,2.20
2018-12-05T00:58:14.786Z,2.07
2018-12-05T01:00:11.117Z,2.02
2018-12-05T01:01:11.054Z,2.02
2018-12-05T01:03:07.967Z,2.00
2018-12-05T01:04:07.917Z,2.01
2018-12-05T01:06:04.940Z,1.98
2018-12-05T01:07:04.882Z,1.98
2018-12-05T01:09:01.163Z,1.93
2018-12-05T01:10:01.113Z,1.93
2018-12-05T01:11:56.486Z,1.95
2018-12-05T01:12:56.433Z,2.00
2018-12-05T01:14:52.800Z,1.92
2018-12-05T01:15:52.738Z,1.83
2018-12-05T01:17:50.269Z,1.83
2018-12-05T01:18:50.237Z,1.77
2018-12-05T01:20:46.725Z,1.75
2018-12-05T01:21:46.668Z,1.72
2018-12-05T01:23:44.609Z,1.75
2018-12-05T01:24:44.561Z,1.71
2018-12-05T01:26:41.164Z,1.74
2018-12-05T01:27:41.101Z,1.71
2018-12-05T01:29:38.897Z,1.77
2018-12-05T01:30:38.818Z,1.79
2018-12-05T01:32:35.437Z,1.75
2018-12-05T01:33:35.394Z,1.74
2018-12-05T01:35:31.730Z,1.77
2018-12-05T01:36:31.671Z,1.67
2018-12-05T01:38:27.978Z,1.61
2018-12-05T01:39:27.929Z,1.57
2018-12-05T01:41:24.263Z,1.50
2018-12-05T01:42:24.204Z,1.56
2018-12-05T01:44:20.525Z,1.49
2018-12-05T01:45:20.480Z,1.47
2018-12-05T01:47:16.778Z,1.43
2018-12-05T01:48:16.718Z,1.38
2018-12-05T01:50:12.086Z,1.25
2018-12-05T01:51:12.039Z,1.11
2018-12-05T01:53:08.701Z,0.96
2018-12-05T01:54:08.639Z,1.06
2018-12-05T01:56:05.504Z,0.96
2018-12-05T01:57:05.449Z,1.06
2018-12-05T01:59:01.853Z,1.02
2018-12-05T02:00:01.783Z,1.06
2018-12-05T02:02:09.452Z,0.88
2018-12-05T02:03:09.390Z,0.92
2018-12-05T02:05:06.274Z,1.04
2018-12-05T02:06:06.225Z,1.04
2018-12-05T02:08:00.470Z,1.11
2018-12-05T02:09:00.411Z,0.99
2018-12-05T02:10:55.777Z,0.95
2018-12-05T02:11:55.734Z,0.88
2018-12-05T02:13:50.101Z,0.84
2018-12-05T02:14:50.041Z,0.93
2018-12-05T02:16:46.516Z,0.98
2018-12-05T02:17:46.456Z,0.98
2018-12-05T02:19:40.883Z,1.02
2018-12-05T02:20:40.831Z,1.07
2018-12-05T02:22:36.197Z,1.10
2018-12-05T02:23:36.137Z,1.02
2018-12-05T02:25:32.935Z,1.06
2018-12-05T02:26:32.891Z,0.98
2018-12-05T02:28:28.594Z,1.02
2018-12-05T02:29:28.533Z,1.13
2018-12-05T02:31:24.168Z,1.07
2018-12-05T02:32:24.117Z,1.06
2018-12-05T02:34:20.441Z,1.06
2018-12-05T02:35:20.382Z,1.13
2018-12-05T02:37:16.077Z,1.10
2018-12-05T02:38:16.009Z,1.10
2018-12-05T02:40:12.348Z,1.10
2018-12-05T02:41:12.299Z,1.11
2018-12-05T02:43:08.044Z,1.25
2018-12-05T02:44:07.990Z,1.16
2018-12-05T02:46:03.369Z,1.20
2018-12-05T02:47:03.322Z,1.26
2018-12-05T02:49:00.159Z,1.29
2018-12-05T02:50:00.098Z,1.32
2018-12-05T02:51:55.794Z,1.32
2018-12-05T02:52:55.748Z,1.31
2018-12-05T02:54:52.546Z,1.31
2018-12-05T02:55:52.493Z,1.29
2018-12-05T02:57:49.280Z,1.44
2018-12-05T02:58:49.218Z,1.42
2018-12-05T03:00:45.151Z,1.47
2018-12-05T03:01:45.101Z,1.50
2018-12-05T03:03:40.530Z,1.49
2018-12-05T03:04:40.468Z,1.47
2018-12-05T03:06:35.912Z,1.60
2018-12-05T03:07:35.863Z,1.56
2018-12-05T03:09:31.252Z,1.56
2018-12-05T03:10:31.191Z,1.49
2018-12-05T03:12:26.590Z,1.53
2018-12-05T03:13:26.539Z,1.47
2018-12-05T03:15:22.877Z,1.57
2018-12-05T03:16:22.816Z,1.67
2018-12-05T03:18:18.251Z,1.67
2018-12-05T03:19:18.188Z,1.65
2018-12-05T03:21:13.636Z,1.70
2018-12-05T03:22:13.586Z,1.67
2018-12-05T03:24:09.231Z,1.74
2018-12-05T03:25:09.168Z,1.74
2018-12-05T03:27:04.631Z,1.75
2018-12-05T03:28:04.582Z,1.67
2018-12-05T03:30:01.176Z,1.74
2018-12-05T03:31:01.117Z,1.75
2018-12-05T03:32:56.775Z,1.77
2018-12-05T03:33:56.703Z,1.71
2018-12-05T03:35:53.023Z,1.74
2018-12-05T03:36:52.965Z,1.71
2018-12-05T03:38:49.628Z,1.85
2018-12-05T03:39:49.565Z,1.79
2018-12-05T03:41:44.964Z,1.71
2018-12-05T03:42:44.916Z,1.82
2018-12-05T03:44:40.295Z,1.77
2018-12-05T03:45:40.239Z,1.79
2018-12-05T03:47:36.547Z,1.65
2018-12-05T03:48:36.497Z,1.63
2018-12-05T03:50:32.411Z,1.70
2018-12-05T03:51:32.350Z,1.68
2018-12-05T03:53:27.963Z,1.61
2018-12-05T03:54:28.216Z,1.64
2018-12-05T03:56:25.056Z,1.60
2018-12-05T03:57:24.999Z,1.60
2018-12-05T03:59:32.832Z,1.63
2018-12-05T04:00:32.770Z,1.56
2018-12-05T04:02:29.104Z,1.65
2018-12-05T04:03:30.155Z,1.61
2018-12-05T04:05:25.451Z,1.61
2018-12-05T04:06:25.387Z,1.52
2018-12-05T04:08:33.718Z,1.38
2018-12-05T04:09:33.671Z,1.36
2018-12-05T04:11:30.042Z,1.52
2018-12-05T04:12:29.929Z,1.52
2018-12-05T04:14:25.339Z,1.42
2018-12-05T04:15:25.266Z,1.32
2018-12-05T04:17:20.689Z,1.38
2018-12-05T04:18:20.638Z,1.35
2018-12-05T04:20:16.160Z,1.32
2018-12-05T04:21:16.097Z,1.26
2018-12-05T04:23:12.991Z,1.25
2018-12-05T04:24:12.947Z,1.20
2018-12-05T04:26:09.228Z,1.31
2018-12-05T04:27:09.172Z,1.18
2018-12-05T04:29:04.813Z,1.21
2018-12-05T04:30:04.761Z,1.21
2018-12-05T04:32:00.496Z,1.14
2018-12-05T04:33:00.441Z,1.08
2018-12-05T04:34:55.935Z,1.10
2018-12-05T04:35:55.876Z,1.14
2018-12-05T04:37:52.737Z,1.13
2018-12-05T04:38:51.700Z,1.07
2018-12-05T04:40:48.477Z,1.06
2018-12-05T04:41:48.416Z,1.02
2018-12-05T04:43:44.437Z,1.04
2018-12-05T04:44:44.386Z,1.07
2018-12-05T04:46:41.161Z,1.04
2018-12-05T04:47:41.098Z,1.08
2018-12-05T04:49:36.550Z,1.02
2018-12-05T04:50:36.498Z,1.04
2018-12-05T04:52:31.917Z,0.96
2018-12-05T04:53:31.977Z,1.07
2018-12-05T04:55:27.233Z,0.99
2018-12-05T04:56:27.176Z,1.00
2018-12-05T04:58:22.979Z,0.96
2018-12-05T04:59:22.932Z,0.98
2018-12-05T05:01:18.277Z,0.96
2018-12-05T05:02:18.216Z,0.99
2018-12-05T05:04:15.021Z,0.95
2018-12-05T05:05:14.971Z,0.96
2018-12-05T05:07:10.367Z,1.07
2018-12-05T05:08:10.303Z,1.04
2018-12-05T05:10:05.904Z,1.02
2018-12-05T05:11:05.852Z,1.10
2018-12-05T05:13:01.854Z,1.07
2018-12-05T05:14:01.792Z,1.02
2018-12-05T05:15:56.181Z,1.00
2018-12-05T05:16:56.121Z,1.00
2018-12-05T05:18:51.894Z,0.98
2018-12-05T05:19:51.797Z,0.95
2018-12-05T05:21:49.141Z,0.89
2018-12-05T05:22:49.081Z,0.81
2018-12-05T05:24:45.383Z,0.72
2018-12-05T05:25:45.335Z,0.71
2018-12-05T05:27:45.862Z,0.57
2018-12-05T05:28:41.317Z,0.59
2018-12-05T05:30:36.020Z,0.49
2018-12-05T05:31:35.971Z,0.41
2018-12-05T05:33:32.335Z,0.38
2018-12-05T05:34:32.273Z,0.28
2018-12-05T05:36:29.401Z,0.23
2018-12-05T05:37:28.774Z,0.34
2018-12-05T05:39:24.497Z,0.34
2018-12-05T05:40:24.448Z,0.37
2018-12-05T05:42:18.875Z,0.30
2018-12-05T05:43:18.816Z,0.34
2018-12-05T05:45:27.968Z,0.33
2018-12-05T05:46:27.919Z,0.35
2018-12-05T05:48:24.286Z,0.44
2018-12-05T05:49:24.224Z,0.44
2018-12-05T05:51:20.573Z,0.48
2018-12-05T05:52:20.523Z,0.43
2018-12-05T05:54:17.833Z,0.48
2018-12-05T05:55:17.771Z,0.51
2018-12-05T05:57:14.086Z,0.52
2018-12-05T05:58:14.027Z,0.56
2018-12-05T06:00:09.358Z,0.53
2018-12-05T06:01:09.309Z,0.52
2018-12-05T06:03:05.707Z,0.53
2018-12-05T06:04:05.647Z,0.52
2018-12-05T06:06:02.525Z,0.62
2018-12-05T06:07:02.475Z,0.53
2018-12-05T06:09:00.425Z,0.48
2018-12-05T06:10:00.363Z,0.48
2018-12-05T06:11:57.561Z,0.64
2018-12-05T06:12:57.513Z,0.64
2018-12-05T06:14:54.176Z,0.52
2018-12-05T06:15:54.122Z,0.53
2018-12-05T06:17:50.559Z,0.57
2018-12-05T06:18:50.502Z,0.60
2018-12-05T06:20:48.983Z,0.57
2018-12-05T06:21:48.926Z,0.60
2018-12-05T06:23:44.354Z,0.67
2018-12-05T06:24:44.293Z,0.67
2018-12-05T06:26:40.858Z,0.56
2018-12-05T06:27:40.807Z,0.51
2018-12-05T06:29:37.142Z,0.67
2018-12-05T06:30:37.088Z,0.62
2018-12-05T06:32:34.250Z,0.57
2018-12-05T06:33:34.197Z,0.44
2018-12-05T06:35:30.564Z,0.51
2018-12-05T06:36:30.507Z,0.41
2018-12-05T06:38:27.603Z,0.53
2018-12-05T06:39:27.542Z,0.56
2018-12-05T06:41:24.347Z,0.57
2018-12-05T06:42:24.289Z,0.60
2018-12-05T06:44:22.294Z,0.53
2018-12-05T06:45:22.229Z,0.70
2018-12-05T06:47:18.742Z,0.52
2018-12-05T06:48:18.695Z,0.63
2018-12-05T06:50:15.018Z,0.52
2018-12-05T06:51:14.954Z,0.60
2018-12-05T06:53:10.748Z,0.67
2018-12-05T06:54:10.687Z,0.70
2018-12-05T06:56:07.042Z,0.78
2018-12-05T06:57:06.986Z,0.68
2018-12-05T06:59:04.701Z,0.80
2018-12-05T07:00:04.727Z,0.63
2018-12-05T07:02:12.532Z,0.70
2018-12-05T07:03:12.485Z,0.77
2018-12-05T07:05:07.912Z,0.78
2018-12-05T07:06:07.853Z,0.77
2018-12-05T07:08:03.620Z,0.78
2018-12-05T07:09:03.569Z,0.74
2018-12-05T07:10:59.388Z,0.72
2018-12-05T07:11:59.325Z,0.70
2018-12-05T07:13:55.157Z,0.70
2018-12-05T07:14:55.108Z,0.74
2018-12-05T07:16:51.615Z,0.72
2018-12-05T07:17:51.554Z,0.78
2018-12-05T07:19:48.284Z,0.81
2018-12-05T07:20:48.223Z,0.93
2018-12-05T07:22:43.657Z,0.81
2018-12-05T07:23:43.609Z,0.90
2018-12-05T07:25:51.366Z,0.90
2018-12-05T07:26:51.302Z,0.92
2018-12-05T07:28:46.666Z,0.90
2018-12-05T07:29:47.009Z,0.93
2018-12-05T07:31:42.933Z,0.96
2018-12-05T07:32:42.871Z,0.93
2018-12-05T07:34:38.721Z,0.89
2018-12-05T07:35:38.658Z,0.82
2018-12-05T07:37:35.013Z,0.86
2018-12-05T07:38:34.969Z,0.96
2018-12-05T07:40:32.174Z,0.96
2018-12-05T07:41:32.112Z,0.96
2018-12-05T07:43:28.986Z,1.04
2018-12-05T07:44:28.936Z,0.98
2018-12-05T07:46:25.255Z,1.11
2018-12-05T07:47:25.186Z,1.04
2018-12-05T07:49:22.465Z,1.02
2018-12-05T07:50:22.419Z,1.06
2018-12-05T07:52:20.418Z,1.10
2018-12-05T07:53:20.351Z,1.11
2018-12-05T07:55:17.242Z,1.00
2018-12-05T07:56:17.190Z,1.02
2018-12-05T07:58:12.747Z,1.02
2018-12-05T07:59:12.684Z,1.14
2018-12-05T08:01:08.382Z,1.14
2018-12-05T08:02:08.321Z,1.18
2018-12-05T08:04:04.692Z,1.16
2018-12-05T08:05:04.644Z,1.18
2018-12-05T08:07:00.037Z,1.21
2018-12-05T08:07:59.976Z,1.21
2018-12-05T08:09:55.717Z,1.28
2018-12-05T08:10:55.669Z,1.28
2018-12-05T08:12:51.082Z,1.24
2018-12-05T08:13:51.025Z,1.25
2018-12-05T08:15:47.421Z,1.20
2018-12-05T08:16:47.374Z,1.29
2018-12-05T08:18:43.970Z,1.29
2018-12-05T08:19:43.912Z,1.28
2018-12-05T08:21:40.964Z,1.28
2018-12-05T08:22:40.925Z,1.31
2018-12-05T08:24:37.495Z,1.35
2018-12-05T08:25:37.436Z,1.38
2018-12-05T08:27:34.133Z,1.36
2018-12-05T08:28:34.071Z,1.38
2018-12-05T08:30:30.596Z,1.52
2018-12-05T08:31:30.546Z,1.36
2018-12-05T08:33:27.038Z,1.38
2018-12-05T08:34:26.978Z,1.36
2018-12-05T08:36:22.600Z,1.49
2018-12-05T08:37:22.538Z,1.38
2018-12-05T08:39:18.108Z,1.54
2018-12-05T08:40:18.060Z,1.47
2018-12-05T08:42:15.008Z,1.52
2018-12-05T08:43:14.945Z,1.54
2018-12-05T08:45:12.389Z,1.67
2018-12-05T08:46:12.340Z,1.63
2018-12-05T08:48:07.868Z,1.63
2018-12-05T08:49:07.809Z,1.68
2018-12-05T08:51:04.128Z,1.71
2018-12-05T08:52:04.082Z,1.72
2018-12-05T08:54:00.496Z,1.74
2018-12-05T08:55:00.433Z,1.79
2018-12-05T08:56:56.755Z,1.81
2018-12-05T08:57:56.693Z,1.86
2018-12-05T08:59:53.562Z,1.82
2018-12-05T09:00:53.494Z,1.83
2018-12-05T09:02:49.820Z,1.93
2018-12-05T09:03:49.758Z,1.93
2018-12-05T09:05:46.352Z,2.11
2018-12-05T09:06:46.302Z,2.04
2018-12-05T09:08:42.693Z,2.02
2018-12-05T09:09:42.635Z,2.00
2018-12-05T09:11:39.033Z,2.18
2018-12-05T09:12:38.974Z,2.08
2018-12-05T09:14:35.859Z,2.29
2018-12-05T09:15:35.815Z,2.27
2018-12-05T09:17:32.183Z,2.25
2018-12-05T09:18:32.124Z,2.30
2018-12-05T09:20:27.139Z,2.33
2018-12-05T09:21:27.091Z,2.43
2018-12-05T09:23:23.498Z,2.38
2018-12-05T09:24:23.444Z,2.41
2018-12-05T09:26:18.858Z,2.37
2018-12-05T09:27:18.804Z,2.41
2018-12-05T09:29:16.161Z,2.33
2018-12-05T09:30:16.108Z,2.27
2018-12-05T09:32:11.623Z,2.26
2018-12-05T09:33:11.482Z,2.25
2018-12-05T09:35:07.279Z,2.33
2018-12-05T09:36:07.232Z,2.38
2018-12-05T09:38:03.609Z,2.36
2018-12-05T09:39:03.547Z,2.44
2018-12-05T09:40:59.136Z,2.51
2018-12-05T09:41:59.091Z,2.55
2018-12-05T09:43:55.413Z,2.59
2018-12-05T09:44:55.354Z,2.51
2018-12-05T09:46:52.205Z,2.59
2018-12-05T09:47:52.145Z,2.69
2018-12-05T09:49:48.455Z,2.63
2018-12-05T09:50:48.403Z,2.74
2018-12-05T09:52:45.140Z,2.83
2018-12-05T09:53:45.083Z,2.77
2018-12-05T09:55:40.085Z,2.95
2018-12-05T09:56:40.033Z,2.83
2018-12-05T09:58:35.775Z,2.92
2018-12-05T09:59:35.715Z,2.80
2018-12-05T10:01:31.977Z,2.92
2018-12-05T10:02:31.927Z,2.87
2018-12-05T10:04:29.039Z,2.98
2018-12-05T10:05:28.984Z,3.05
2018-12-05T10:07:25.485Z,3.07
2018-12-05T10:08:25.376Z,3.07
2018-12-05T10:10:21.825Z,3.20
2018-12-05T10:11:21.778Z,3.08
2018-12-05T10:13:19.631Z,3.16
2018-12-05T10:14:19.575Z,3.10
2018-12-05T10:16:15.988Z,3.20
2018-12-05T10:17:15.942Z,3.15
2018-12-05T10:19:12.852Z,3.25
2018-12-05T10:20:12.798Z,3.30
2018-12-05T10:22:09.413Z,3.35
2018-12-05T10:23:09.366Z,3.45
2018-12-05T10:25:05.713Z,3.49
2018-12-05T10:26:05.657Z,3.52
2018-12-05T10:28:02.000Z,3.56
2018-12-05T10:29:01.946Z,3.53
2018-12-05T10:30:57.678Z,3.64
2018-12-05T10:31:57.629Z,3.71
2018-12-05T10:34:06.864Z,3.78
2018-12-05T10:35:06.807Z,3.77
2018-12-05T10:37:03.758Z,3.74
2018-12-05T10:38:03.705Z,3.80
2018-12-05T10:39:59.287Z,3.77
2018-12-05T10:40:59.227Z,3.81
2018-12-05T10:42:55.308Z,3.81
2018-12-05T10:43:55.251Z,3.78
2018-12-05T10:45:50.614Z,3.77
2018-12-05T10:46:50.561Z,3.84
2018-12-05T10:48:46.415Z,3.86
2018-12-05T10:49:46.293Z,3.92
2018-12-05T10:51:41.762Z,3.90
2018-12-05T10:52:41.714Z,3.98
2018-12-05T10:54:37.090Z,3.99
2018-12-05T10:55:37.033Z,3.96
2018-12-05T10:57:32.434Z,3.98
2018-12-05T10:58:32.383Z,3.96
2018-12-05T11:00:27.810Z,4.04
2018-12-05T11:01:27.750Z,4.02
2018-12-05T11:03:23.950Z,3.98
2018-12-05T11:04:23.498Z,4.07
2018-12-05T11:06:18.474Z,4.14
2018-12-05T11:07:18.425Z,4.08
2018-12-05T11:09:13.781Z,4.06
2018-12-05T11:10:13.721Z,4.08
2018-12-05T11:12:09.206Z,4.07
2018-12-05T11:13:09.153Z,4.04
2018-12-05T11:15:05.537Z,4.34
2018-12-05T11:16:05.478Z,4.35
2018-12-05T11:18:01.283Z,4.36
2018-12-05T11:19:01.234Z,4.34
2018-12-05T11:20:57.100Z,4.44
2018-12-05T11:21:57.048Z,4.39
2018-12-05T11:23:52.465Z,4.39
2018-12-05T11:24:52.409Z,4.44
2018-12-05T11:26:49.808Z,4.53
2018-12-05T11:27:49.764Z,4.53
2018-12-05T11:29:45.222Z,4.59
2018-12-05T11:30:45.166Z,4.56
2018-12-05T11:32:40.690Z,4.65
2018-12-05T11:33:40.637Z,4.79
2018-12-05T11:35:36.327Z,4.68
2018-12-05T11:36:36.126Z,4.65
2018-12-05T11:38:30.476Z,4.75
2018-12-05T11:39:30.431Z,4.83
2018-12-05T11:41:26.309Z,4.77
2018-12-05T11:42:26.254Z,4.84
2018-12-05T11:44:21.760Z,5.02
2018-12-05T11:45:21.705Z,4.99
2018-12-05T11:47:17.092Z,4.90
2018-12-05T11:48:17.045Z,4.99
2018-12-05T11:50:12.420Z,4.97
2018-12-05T11:51:12.362Z,5.01
2018-12-05T11:53:07.809Z,5.01
2018-12-05T11:54:07.764Z,5.04
2018-12-05T11:56:03.481Z,5.06
2018-12-05T11:57:03.425Z,5.04
2018-12-05T11:58:58.883Z,5.08
2018-12-05T11:59:58.826Z,5.12
2018-12-05T12:02:08.155Z,5.09
2018-12-05T12:03:08.105Z,5.05
2018-12-05T12:05:04.902Z,5.19
2018-12-05T12:06:04.515Z,5.12
2018-12-05T12:07:59.909Z,5.23
2018-12-05T12:08:59.866Z,5.23
2018-12-05T12:10:56.242Z,5.20
2018-12-05T12:11:56.186Z,5.32
2018-12-05T12:13:52.815Z,5.37
2018-12-05T12:14:52.763Z,5.41
2018-12-05T12:16:49.171Z,5.44
2018-12-05T12:17:49.115Z,5.49
2018-12-05T12:19:47.815Z,5.55
2018-12-05T12:20:47.717Z,5.55
2018-12-05T12:22:44.130Z,5.42
2018-12-05T12:23:44.088Z,5.42
2018-12-05T12:25:40.497Z,5.47
2018-12-05T12:26:40.437Z,5.47
2018-12-05T12:28:37.314Z,5.44
2018-12-05T12:29:37.273Z,5.38
2018-12-05T12:31:34.178Z,5.37
2018-12-05T12:32:34.119Z,5.44
2018-12-05T12:34:30.491Z,5.35
2018-12-05T12:35:30.443Z,5.37
2018-12-05T12:37:27.318Z,5.30
2018-12-05T12:38:27.273Z,5.32
2018-12-05T12:40:23.667Z,5.37
2018-12-05T12:41:23.616Z,5.35
2018-12-05T12:43:20.002Z,5.26
2018-12-05T12:44:19.958Z,5.33
2018-12-05T12:46:16.352Z,5.29
2018-12-05T12:47:16.296Z,5.22
2018-12-05T12:49:12.668Z,5.27
2018-12-05T12:50:12.621Z,5.37
2018-12-05T12:52:09.288Z,5.24
2018-12-05T12:53:09.229Z,5.27
2018-12-05T12:55:06.346Z,5.30
2018-12-05T12:56:06.291Z,5.32
2018-12-05T12:58:02.166Z,5.32
2018-12-05T12:59:02.120Z,5.30
2018-12-05T13:00:58.443Z,5.26
2018-12-05T13:01:58.386Z,5.30
2018-12-05T13:04:07.520Z,5.47
2018-12-05T13:05:07.473Z,5.44
2018-12-05T13:07:04.362Z,5.32
2018-12-05T13:08:04.304Z,5.35
2018-12-05T13:10:13.461Z,5.32
2018-12-05T13:11:13.404Z,5.38
2018-12-05T13:13:09.812Z,5.30
2018-12-05T13:14:09.764Z,5.35
2018-12-05T13:16:06.204Z,5.26
2018-12-05T13:17:06.149Z,5.20
2018-12-05T13:19:02.519Z,5.40
2018-12-05T13:20:02.463Z,5.40
2018-12-05T13:21:58.990Z,5.17
2018-12-05T13:22:58.934Z,5.26
2018-12-05T13:24:54.512Z,5.24
2018-12-05T13:25:54.456Z,5.14
2018-12-05T13:27:50.874Z,5.14
2018-12-05T13:28:50.822Z,5.14
2018-12-05T13:30:48.333Z,5.23
2018-12-05T13:31:48.275Z,5.17
2018-12-05T13:33:44.858Z,5.11
2018-12-05T13:34:44.871Z,5.11
2018-12-05T13:36:41.231Z,5.17
2018-12-05T13:37:41.179Z,5.06
2018-12-05T13:39:38.319Z,5.04
2018-12-05T13:40:38.273Z,5.01
2018-12-05T13:42:36.720Z,5.06
2018-12-05T13:43:36.664Z,4.99
2018-12-05T13:45:33.342Z,5.05
2018-12-05T13:46:33.282Z,4.99
2018-12-05T13:48:29.694Z,5.08
2018-12-05T13:49:29.650Z,5.01
2018-12-05T13:51:25.982Z,5.04
2018-12-05T13:52:25.932Z,5.06
2018-12-05T13:54:21.362Z,4.99
2018-12-05T13:55:21.313Z,5.02
2018-12-05T13:57:16.942Z,4.96
2018-12-05T13:58:16.882Z,5.02
2018-12-05T14:00:13.217Z,5.04
2018-12-05T14:01:13.155Z,4.99
2018-12-05T14:03:09.615Z,4.99
2018-12-05T14:04:09.570Z,5.06
2018-12-05T14:06:18.096Z,4.96
2018-12-05T14:07:18.051Z,4.99
2018-12-05T14:09:13.503Z,4.94
2018-12-05T14:10:13.456Z,4.99
2018-12-05T14:12:22.640Z,4.97
2018-12-05T14:13:22.583Z,4.97
2018-12-05T14:15:18.203Z,4.94
2018-12-05T14:16:18.387Z,4.91
2018-12-05T14:18:14.418Z,4.97
2018-12-05T14:19:14.365Z,4.91
2018-12-05T14:21:10.657Z,4.99
2018-12-05T14:22:10.600Z,5.01
2018-12-05T14:24:06.989Z,4.97
2018-12-05T14:25:06.943Z,4.99
2018-12-05T14:27:03.312Z,4.90
2018-12-05T14:28:03.251Z,4.91
2018-12-05T14:30:00.834Z,4.77
2018-12-05T14:31:00.786Z,4.75
2018-12-05T14:32:56.178Z,4.72
2018-12-05T14:33:56.121Z,4.84
2018-12-05T14:35:52.672Z,4.71
2018-12-05T14:36:52.613Z,4.79
2018-12-05T14:38:49.666Z,4.62
2018-12-05T14:39:49.619Z,4.64
2018-12-05T14:41:45.960Z,4.68
2018-12-05T14:42:45.900Z,4.67
2018-12-05T14:44:43.977Z,4.67
2018-12-05T14:45:43.928Z,4.68
2018-12-05T14:47:40.575Z,4.62
2018-12-05T14:48:40.520Z,4.65
2018-12-05T14:50:36.995Z,4.69
2018-12-05T14:51:36.896Z,4.68
2018-12-05T14:53:34.029Z,4.65
2018-12-05T14:54:33.970Z,4.67
2018-12-05T14:56:30.292Z,4.64
2018-12-05T14:57:30.829Z,4.64
2018-12-05T14:59:26.659Z,4.68
2018-12-05T15:00:26.608Z,4.62
2018-12-05T15:02:34.302Z,4.67
2018-12-05T15:03:34.242Z,4.62
2018-12-05T15:05:30.078Z,4.61
2018-12-05T15:06:30.033Z,4.71
2018-12-05T15:08:25.441Z,4.57
2018-12-05T15:09:25.410Z,4.61
2018-12-05T15:11:21.460Z,4.61
2018-12-05T15:12:21.234Z,4.53
2018-12-05T15:14:16.428Z,4.62
2018-12-05T15:15:16.380Z,4.54
2018-12-05T15:17:25.528Z,4.62
2018-12-05T15:18:25.474Z,4.59
2018-12-05T15:20:22.545Z,4.59
2018-12-05T15:21:22.499Z,4.62
2018-12-05T15:23:18.894Z,4.53
2018-12-05T15:24:18.831Z,4.50
2018-12-05T15:26:15.610Z,4.47
2018-12-05T15:27:15.553Z,4.64
2018-12-05T15:29:12.103Z,4.56
2018-12-05T15:30:12.029Z,4.59
2018-12-05T15:32:21.650Z,4.54
2018-12-05T15:33:21.590Z,4.56
2018-12-05T15:35:16.913Z,4.54
2018-12-05T15:36:16.870Z,4.57
2018-12-05T15:38:13.294Z,4.59
2018-12-05T15:39:13.236Z,4.49
2018-12-05T15:41:20.986Z,4.49
2018-12-05T15:42:20.930Z,4.36
2018-12-05T15:44:17.300Z,4.39
2018-12-05T15:45:21.477Z,4.46
2018-12-05T15:47:13.749Z,4.50
2018-12-05T15:48:13.672Z,4.49
2018-12-05T15:50:10.588Z,4.43
2018-12-05T15:51:10.534Z,4.44
2018-12-05T15:53:06.985Z,4.51
2018-12-05T15:54:06.924Z,4.42
2018-12-05T15:56:03.292Z,4.51
2018-12-05T15:57:09.641Z,4.42
2018-12-05T15:58:58.870Z,4.50
2018-12-05T15:59:58.818Z,4.42
2018-12-05T16:02:07.979Z,4.43
2018-12-05T16:03:07.921Z,4.46
2018-12-05T16:05:04.400Z,4.51
2018-12-05T16:06:04.351Z,4.47
2018-12-05T16:07:59.736Z,4.56
2018-12-05T16:08:59.670Z,4.54
2018-12-05T16:10:56.725Z,4.54
2018-12-05T16:11:56.674Z,4.56
2018-12-05T16:13:53.326Z,4.56
2018-12-05T16:14:53.270Z,4.57
2018-12-05T16:16:48.665Z,4.59
2018-12-05T16:17:48.617Z,4.59
2018-12-05T16:19:45.389Z,4.59
2018-12-05T16:20:45.346Z,4.50
2018-12-05T16:22:40.763Z,4.67
2018-12-05T16:23:40.705Z,4.65
2018-12-05T16:25:36.099Z,4.67
2018-12-05T16:26:36.050Z,4.57
2018-12-05T16:28:31.509Z,4.68
2018-12-05T16:29:31.452Z,4.79
2018-12-05T16:31:27.863Z,4.77
2018-12-05T16:32:27.767Z,4.84
2018-12-05T16:34:23.348Z,4.90
2018-12-05T16:35:23.288Z,4.80
2018-12-05T16:37:18.753Z,4.90
2018-12-05T16:38:18.688Z,4.90
2018-12-05T16:40:15.475Z,4.97
2018-12-05T16:41:15.423Z,5.04
2018-12-05T16:43:11.804Z,4.96
2018-12-05T16:44:12.958Z,4.93
2018-12-05T16:46:07.281Z,4.96
2018-12-05T16:47:07.237Z,5.06
2018-12-05T16:49:05.525Z,5.04
2018-12-05T16:50:05.459Z,5.08
2018-12-05T16:52:02.411Z,5.06
2018-12-05T16:53:02.360Z,5.14
2018-12-05T16:54:57.892Z,5.15
2018-12-05T16:55:57.835Z,5.09
2018-12-05T16:57:53.283Z,5.01
2018-12-05T16:58:53.224Z,5.09
2018-12-05T17:00:48.893Z,5.20
2018-12-05T17:01:48.848Z,5.20
2018-12-05T17:03:45.980Z,5.08
2018-12-05T17:04:45.925Z,5.15
2018-12-05T17:06:42.738Z,5.12
2018-12-05T17:07:42.689Z,5.19
2018-12-05T17:09:39.058Z,5.11
2018-12-05T17:10:38.997Z,5.15
2018-12-05T17:12:35.317Z,5.14
2018-12-05T17:13:35.269Z,5.24
2018-12-05T17:15:30.990Z,5.24
2018-12-05T17:16:30.644Z,5.27
2018-12-05T17:18:27.024Z,5.27
2018-12-05T17:19:26.962Z,5.15
2018-12-05T17:21:21.679Z,5.26
2018-12-05T17:22:21.635Z,5.17
2018-12-05T17:24:17.236Z,5.22
2018-12-05T17:25:17.171Z,5.22
2018-12-05T17:27:14.187Z,5.19
2018-12-05T17:28:14.140Z,5.20
2018-12-05T17:30:09.271Z,5.32
2018-12-05T17:31:09.213Z,5.26
2018-12-05T17:33:06.312Z,5.27
2018-12-05T17:34:06.244Z,5.19
2018-12-05T17:36:03.004Z,5.26
2018-12-05T17:37:02.956Z,5.14
2018-12-05T17:38:58.392Z,5.14
2018-12-05T17:39:58.322Z,5.08
2018-12-05T17:41:54.833Z,5.17
2018-12-05T17:42:54.783Z,5.08
2018-12-05T17:44:50.555Z,5.12
2018-12-05T17:45:50.497Z,5.14
2018-12-05T17:47:47.145Z,5.17
2018-12-05T17:48:47.098Z,5.11
2018-12-05T17:50:42.810Z,5.11
2018-12-05T17:51:42.751Z,5.06
2018-12-05T17:53:39.172Z,5.17
2018-12-05T17:54:39.112Z,5.12
2018-12-05T17:56:35.450Z,5.12
2018-12-05T17:57:35.400Z,5.14
2018-12-05T17:59:31.795Z,5.12
2018-12-05T18:00:31.738Z,5.14
2018-12-05T18:02:40.933Z,5.06
2018-12-05T18:03:40.893Z,5.05
2018-12-05T18:05:38.289Z,5.17
2018-12-05T18:06:37.204Z,5.01
2018-12-05T18:08:33.867Z,5.14
2018-12-05T18:09:33.819Z,5.04
2018-12-05T18:11:30.171Z,5.14
2018-12-05T18:12:30.105Z,5.01
2018-12-05T18:14:26.996Z,5.02
2018-12-05T18:15:26.941Z,5.06
2018-12-05T18:17:23.733Z,5.02
2018-12-05T18:18:23.694Z,5.04
2018-12-05T18:20:21.027Z,5.06
2018-12-05T18:21:20.946Z,5.05
2018-12-05T18:23:17.967Z,4.94
2018-12-05T18:24:17.916Z,5.04
2018-12-05T18:26:13.784Z,5.06
2018-12-05T18:27:13.728Z,4.97
2018-12-05T18:29:10.404Z,4.97
2018-12-05T18:30:10.346Z,5.01
2018-12-05T18:32:07.375Z,4.94
2018-12-05T18:33:07.330Z,4.87
2018-12-05T18:35:05.189Z,4.90
2018-12-05T18:36:05.132Z,4.93
2018-12-05T18:38:01.952Z,4.88
2018-12-05T18:39:01.907Z,4.87
2018-12-05T18:40:58.973Z,4.97
2018-12-05T18:41:58.917Z,4.93
2018-12-05T18:43:55.803Z,5.02
2018-12-05T18:44:55.753Z,4.96
2018-12-05T18:46:51.630Z,4.94
2018-12-05T18:47:51.570Z,4.87
2018-12-05T18:49:47.246Z,4.91
2018-12-05T18:50:47.194Z,4.97
2018-12-05T18:52:43.495Z,4.93
2018-12-05T18:53:43.445Z,4.97
2018-12-05T18:55:39.879Z,4.94
2018-12-05T18:56:39.817Z,4.93
2018-12-05T18:58:36.205Z,4.93
2018-12-05T18:59:36.168Z,4.99
2018-12-05T19:01:32.353Z,4.96
2018-12-05T19:02:32.103Z,4.93
2018-12-05T19:04:29.109Z,4.87
2018-12-05T19:05:29.063Z,4.93
2018-12-05T19:07:25.394Z,4.90
2018-12-05T19:08:25.337Z,4.90
2018-12-05T19:10:22.557Z,4.87
2018-12-05T19:11:22.496Z,4.88
2018-12-05T19:13:19.544Z,4.91
2018-12-05T19:14:19.495Z,4.90
2018-12-05T19:16:15.868Z,4.87
2018-12-05T19:17:15.810Z,4.88
2018-12-05T19:19:11.712Z,4.83
2018-12-05T19:20:11.663Z,4.79
2018-12-05T19:22:07.973Z,4.83
2018-12-05T19:23:07.913Z,4.83
2018-12-05T19:25:05.402Z,4.84
2018-12-05T19:26:05.306Z,4.80
2018-12-05T19:28:01.679Z,4.86
2018-12-05T19:29:01.623Z,4.86
2018-12-05T19:30:59.834Z,4.79
2018-12-05T19:31:59.778Z,4.79
2018-12-05T19:33:56.977Z,4.69
2018-12-05T19:34:56.921Z,4.65
2018-12-05T19:36:54.047Z,4.80